createdAt,value
2023-01-29T00:00:46.359Z,88.69
2023-01-29T00:03:51.457Z,87.59
2023-01-29T00:06:53.237Z,87.80
2023-01-29T00:09:55.478Z,88.06
2023-01-29T00:12:59.129Z,88.40
2023-01-29T00:16:02.689Z,89.18
2023-01-29T00:19:04.533Z,89.33
2023-01-29T00:22:06.241Z,89.27
2023-01-29T00:25:09.856Z,88.77
2023-01-29T00:28:12.744Z,89.78
2023-01-29T00:31:19.796Z,89.15
2023-01-29T00:34:23.091Z,88.67
2023-01-29T00:37:27.841Z,88.50
2023-01-29T00:40:49.482Z,89.26
2023-01-29T00:44:09.981Z,89.56
2023-01-29T00:47:30.325Z,89.22
2023-01-29T00:50:32.332Z,89.40
2023-01-29T00:53:34.072Z,90.59
2023-01-29T00:56:37.291Z,89.57
2023-01-29T00:59:38.995Z,88.69
2023-01-29T01:02:59.479Z,88.54
2023-01-29T01:06:10.009Z,87.84
2023-01-29T01:09:30.415Z,86.55
2023-01-29T01:12:32.761Z,87.48
2023-01-29T01:15:36.627Z,87.39
2023-01-29T01:18:38.663Z,87.34
2023-01-29T01:21:40.659Z,85.78
2023-01-29T01:24:42.396Z,86.49
2023-01-29T01:27:44.337Z,87.78
2023-01-29T01:30:46.516Z,89.07
2023-01-29T01:33:48.469Z,90.87
2023-01-29T01:36:50.206Z,91.50
2023-01-29T01:39:52.017Z,92.55
2023-01-29T01:42:56.775Z,91.21
2023-01-29T01:45:58.466Z,90.85
2023-01-29T01:49:15.900Z,90.67
2023-01-29T01:52:19.762Z,90.40
2023-01-29T01:55:26.368Z,91.12
2023-01-29T01:58:33.975Z,93.25
2023-01-29T02:01:35.986Z,92.37
2023-01-29T02:05:06.517Z,91.39
2023-01-29T02:08:27.691Z,92.22
2023-01-29T02:11:30.476Z,90.98
2023-01-29T02:14:39.599Z,90.41
2023-01-29T02:17:41.647Z,90.37
2023-01-29T02:21:03.022Z,90.22
2023-01-29T02:24:26.092Z,92.40
2023-01-29T02:27:49.151Z,91.61
2023-01-29T02:31:04.383Z,91.27
2023-01-29T02:34:20.660Z,91.65
2023-01-29T02:37:44.291Z,90.45
2023-01-29T02:40:54.236Z,91.19
2023-01-29T02:44:12.713Z,91.83
2023-01-29T02:47:31.074Z,91.95
2023-01-29T02:50:41.775Z,91.55
2023-01-29T02:53:58.608Z,90.74
2023-01-29T02:57:32.578Z,93.36
2023-01-29T03:00:39.745Z,95.34
2023-01-29T03:03:46.041Z,95.49
2023-01-29T03:06:58.515Z,94.83
2023-01-29T03:10:03.326Z,93.97
2023-01-29T03:13:26.491Z,92.59
2023-01-29T03:16:36.944Z,92.44
2023-01-29T03:19:44.142Z,91.88
2023-01-29T03:22:52.404Z,92.03
2023-01-29T03:26:17.800Z,91.94
2023-01-29T03:29:39.036Z,92.22
2023-01-29T03:32:43.025Z,91.62
2023-01-29T03:35:59.316Z,91.08
2023-01-29T03:39:01.077Z,91.45
2023-01-29T03:42:21.178Z,91.28
2023-01-29T03:45:43.772Z,90.95
2023-01-29T03:49:01.399Z,91.44
2023-01-29T03:52:15.731Z,91.60
2023-01-29T03:55:24.900Z,91.16
2023-01-29T03:58:54.661Z,91.65
2023-01-29T04:02:00.292Z,91.01
2023-01-29T04:05:14.872Z,91.25
2023-01-29T04:08:27.879Z,92.47
2023-01-29T04:11:31.182Z,93.80
2023-01-29T04:14:33.216Z,93.61
2023-01-29T04:17:39.811Z,94.71
2023-01-29T04:20:42.147Z,94.92
2023-01-29T04:23:44.944Z,94.74
2023-01-29T04:26:46.632Z,95.24
2023-01-29T04:30:04.720Z,95.53
2023-01-29T04:33:06.217Z,93.63
2023-01-29T04:36:20.061Z,93.72
2023-01-29T04:39:32.848Z,93.64
2023-01-29T04:42:44.322Z,94.67
2023-01-29T04:45:54.808Z,95.46
2023-01-29T04:49:05.365Z,96.11
2023-01-29T04:52:24.451Z,96.07
2023-01-29T04:55:49.423Z,96.42
2023-01-29T04:58:57.251Z,96.28
2023-01-29T05:02:02.383Z,95.94
2023-01-29T05:05:06.230Z,96.29
2023-01-29T05:08:09.211Z,96.10
2023-01-29T05:11:11.705Z,94.78
2023-01-29T05:14:17.083Z,94.87
2023-01-29T05:17:20.747Z,94.47
2023-01-29T05:20:22.520Z,93.65
2023-01-29T05:23:24.534Z,95.14
2023-01-29T05:26:45.982Z,95.94
2023-01-29T05:29:47.977Z,96.39
2023-01-29T05:32:49.695Z,95.68
2023-01-29T05:35:51.431Z,95.67
2023-01-29T05:38:53.108Z,95.21
2023-01-29T05:41:55.019Z,94.71
2023-01-29T05:44:57.847Z,94.53
2023-01-29T05:48:00.437Z,94.97
2023-01-29T05:51:05.610Z,96.24
2023-01-29T05:54:07.260Z,96.96
2023-01-29T05:57:09.029Z,97.47
2023-01-29T06:00:13.180Z,97.27
2023-01-29T06:03:15.121Z,96.85
2023-01-29T06:06:17.389Z,95.73
2023-01-29T06:09:19.158Z,95.31
2023-01-29T06:12:21.040Z,96.39
2023-01-29T06:15:22.777Z,96.36
2023-01-29T06:18:24.656Z,95.58
2023-01-29T06:21:26.324Z,96.15
2023-01-29T06:24:28.018Z,95.33
2023-01-29T06:27:29.828Z,97.08
2023-01-29T06:30:31.998Z,97.90
2023-01-29T06:33:34.127Z,96.55
2023-01-29T06:36:36.107Z,97.76
2023-01-29T06:39:37.787Z,97.47
2023-01-29T06:42:39.409Z,97.09
2023-01-29T06:45:55.263Z,96.52
2023-01-29T06:49:02.603Z,96.38
2023-01-29T06:52:04.432Z,97.51
2023-01-29T06:55:06.615Z,97.35
2023-01-29T06:58:10.192Z,96.90
2023-01-29T07:01:17.509Z,98.00
2023-01-29T07:04:31.016Z,97.63
2023-01-29T07:07:35.847Z,98.39
2023-01-29T07:10:37.596Z,99.28
2023-01-29T07:13:39.322Z,99.21
2023-01-29T07:16:41.105Z,99.31
2023-01-29T07:19:42.854Z,99.99
2023-01-29T07:22:45.587Z,99.69
2023-01-29T07:25:49.952Z,99.45
2023-01-29T07:28:52.664Z,98.07
2023-01-29T07:31:54.550Z,98.93
2023-01-29T07:34:56.399Z,97.88
2023-01-29T07:37:58.342Z,96.70
2023-01-29T07:41:01.365Z,96.55
2023-01-29T07:44:04.799Z,95.83
2023-01-29T07:47:06.505Z,95.54
2023-01-29T07:50:08.773Z,95.08
2023-01-29T07:53:16.564Z,96.22
2023-01-29T07:56:18.339Z,93.86
2023-01-29T07:59:20.106Z,93.32
2023-01-29T08:02:22.848Z,94.67
2023-01-29T08:05:27.740Z,95.97
2023-01-29T08:08:30.716Z,96.39
2023-01-29T08:11:33.449Z,96.20
2023-01-29T08:14:36.405Z,98.48
2023-01-29T08:17:52.542Z,100.00
2023-01-29T08:21:00.930Z,100.00
2023-01-29T08:24:03.848Z,100.00
2023-01-29T08:27:05.563Z,100.00
2023-01-29T08:30:08.612Z,100.00
2023-01-29T08:33:10.453Z,100.00
2023-01-29T08:36:12.204Z,100.00
2023-01-29T08:39:13.985Z,100.00
2023-01-29T08:42:15.758Z,100.00
2023-01-29T08:45:17.513Z,100.00
2023-01-29T08:48:19.386Z,100.00
2023-01-29T08:51:22.543Z,100.00
2023-01-29T08:54:25.266Z,100.00
2023-01-29T08:57:28.998Z,100.00
2023-01-29T09:00:31.157Z,100.00
2023-01-29T09:03:32.910Z,100.00
2023-01-29T09:06:42.612Z,100.00
2023-01-29T09:09:44.288Z,100.00
2023-01-29T09:12:47.056Z,100.00
2023-01-29T09:15:48.721Z,100.00
2023-01-29T09:18:53.455Z,100.00
2023-01-29T09:21:56.324Z,100.00
2023-01-29T09:24:58.091Z,100.00
2023-01-29T09:27:59.813Z,100.00
2023-01-29T09:31:03.131Z,100.00
2023-01-29T09:34:05.093Z,100.00
2023-01-29T09:37:06.859Z,100.00
2023-01-29T09:40:30.703Z,99.61
2023-01-29T09:43:51.140Z,98.06
2023-01-29T09:46:55.773Z,97.27
2023-01-29T09:50:00.035Z,97.61
2023-01-29T09:53:11.418Z,96.88
2023-01-29T09:56:20.007Z,96.10
2023-01-29T09:59:24.849Z,95.63
2023-01-29T10:02:35.298Z,95.51
2023-01-29T10:05:56.224Z,95.50
2023-01-29T10:09:10.013Z,95.56
2023-01-29T10:12:24.965Z,95.32
2023-01-29T10:15:52.332Z,96.25
2023-01-29T10:18:56.848Z,98.13
2023-01-29T10:22:14.022Z,98.30
2023-01-29T10:25:20.262Z,99.39
2023-01-29T10:28:46.500Z,98.98
2023-01-29T10:31:55.098Z,98.07
2023-01-29T10:35:02.666Z,98.67
2023-01-29T10:38:13.705Z,98.26
2023-01-29T10:41:30.269Z,98.25
2023-01-29T10:44:54.091Z,97.93
2023-01-29T10:48:26.466Z,96.48
2023-01-29T10:52:00.553Z,96.21
2023-01-29T10:55:23.554Z,96.50
2023-01-29T10:58:46.789Z,96.26
2023-01-29T11:01:48.904Z,97.91
2023-01-29T11:04:50.679Z,97.17
2023-01-29T11:08:05.363Z,98.27
2023-01-29T11:11:18.930Z,97.80
2023-01-29T11:14:42.821Z,97.61
2023-01-29T11:18:15.400Z,98.10
2023-01-29T11:21:17.510Z,95.90
2023-01-29T11:24:19.348Z,95.58
2023-01-29T11:27:26.536Z,94.82
2023-01-29T11:30:34.266Z,94.57
2023-01-29T11:33:36.181Z,95.28
2023-01-29T11:36:39.282Z,95.37
2023-01-29T11:39:47.218Z,95.76
2023-01-29T11:42:49.936Z,96.01
2023-01-29T11:45:56.438Z,96.24
2023-01-29T11:48:59.274Z,95.78
2023-01-29T11:52:10.622Z,95.25
2023-01-29T11:55:19.716Z,95.98
2023-01-29T11:58:32.852Z,94.05
2023-01-29T12:01:38.616Z,93.99
2023-01-29T12:04:41.656Z,94.46
2023-01-29T12:07:45.740Z,95.78
2023-01-29T12:10:48.155Z,95.86
2023-01-29T12:13:54.970Z,96.59
2023-01-29T12:17:05.608Z,96.19
2023-01-29T12:20:16.734Z,96.31
2023-01-29T12:23:48.497Z,95.36
2023-01-29T12:27:13.182Z,94.97
2023-01-29T12:31:01.428Z,94.14
2023-01-29T12:34:17.564Z,94.03
2023-01-29T12:37:25.901Z,94.19
2023-01-29T12:40:51.728Z,94.13
2023-01-29T12:43:58.062Z,94.86
2023-01-29T12:47:03.311Z,93.52
2023-01-29T12:50:32.652Z,94.27
2023-01-29T12:53:43.571Z,94.66
2023-01-29T12:56:53.899Z,95.65
2023-01-29T13:00:02.743Z,95.20
2023-01-29T13:03:17.159Z,95.43
2023-01-29T13:06:31.524Z,94.67
2023-01-29T13:09:37.587Z,94.48
2023-01-29T13:12:43.601Z,94.59
2023-01-29T13:15:47.346Z,95.72
2023-01-29T13:19:00.634Z,94.87
2023-01-29T13:22:07.216Z,94.66
2023-01-29T13:25:17.958Z,94.85
2023-01-29T13:28:23.824Z,94.90
2023-01-29T13:31:38.105Z,95.63
2023-01-29T13:34:49.183Z,94.95
2023-01-29T13:37:55.440Z,96.17
2023-01-29T13:41:03.400Z,94.69
2023-01-29T13:44:08.804Z,94.92
2023-01-29T13:47:22.517Z,94.73
2023-01-29T13:50:39.854Z,93.56
2023-01-29T13:53:43.550Z,93.47
2023-01-29T13:56:59.190Z,92.93
2023-01-29T14:00:01.281Z,92.00
2023-01-29T14:03:08.646Z,93.95
2023-01-29T14:06:10.509Z,94.02
2023-01-29T14:09:31.049Z,94.15
2023-01-29T14:12:37.693Z,92.45
2023-01-29T14:15:40.253Z,92.27
2023-01-29T14:18:56.731Z,93.03
2023-01-29T14:21:59.155Z,92.25
2023-01-29T14:25:05.439Z,92.96
2023-01-29T14:28:19.354Z,92.78
2023-01-29T14:31:50.914Z,92.36
2023-01-29T14:35:19.876Z,92.71
2023-01-29T14:38:25.190Z,92.66
2023-01-29T14:41:33.696Z,93.96
2023-01-29T14:44:45.218Z,92.77
2023-01-29T14:47:48.238Z,92.22
2023-01-29T14:50:56.038Z,91.86
2023-01-29T14:54:19.008Z,91.29
2023-01-29T14:57:21.124Z,91.03
2023-01-29T15:00:27.939Z,90.16
2023-01-29T15:03:40.005Z,90.81
2023-01-29T15:06:54.468Z,91.65
2023-01-29T15:10:22.660Z,90.10
2023-01-29T15:13:37.871Z,91.04
2023-01-29T15:16:48.768Z,90.80
2023-01-29T15:19:50.951Z,92.37
2023-01-29T15:22:53.059Z,91.61
2023-01-29T15:26:02.147Z,92.71
2023-01-29T15:29:06.064Z,93.26
2023-01-29T15:32:11.269Z,92.61
2023-01-29T15:35:28.612Z,91.71
2023-01-29T15:38:31.023Z,90.48
2023-01-29T15:41:33.341Z,91.83
2023-01-29T15:44:35.608Z,90.21
2023-01-29T15:47:37.803Z,89.35
2023-01-29T15:50:42.112Z,89.76
2023-01-29T15:53:58.885Z,89.62
2023-01-29T15:57:02.159Z,89.11
2023-01-29T16:00:06.998Z,89.12
2023-01-29T16:03:16.561Z,88.41
2023-01-29T16:06:19.747Z,87.80
2023-01-29T16:09:25.381Z,87.96
2023-01-29T16:12:29.175Z,87.27
2023-01-29T16:15:37.038Z,86.43
2023-01-29T16:18:54.203Z,86.72
2023-01-29T16:22:06.388Z,87.26
2023-01-29T16:25:15.289Z,87.82
2023-01-29T16:28:19.018Z,88.93
2023-01-29T16:31:28.828Z,89.97
2023-01-29T16:34:44.672Z,90.67
2023-01-29T16:37:52.855Z,90.17
2023-01-29T16:41:22.743Z,90.85
2023-01-29T16:44:46.215Z,91.54
2023-01-29T16:48:02.179Z,91.99
2023-01-29T16:51:07.909Z,91.47
2023-01-29T16:54:18.626Z,89.23
2023-01-29T16:57:25.964Z,89.25
2023-01-29T17:00:32.329Z,88.03
2023-01-29T17:03:40.877Z,87.37
2023-01-29T17:06:47.821Z,87.34
2023-01-29T17:09:54.747Z,88.05
2023-01-29T17:12:57.183Z,87.25
2023-01-29T17:16:17.028Z,86.80
2023-01-29T17:19:22.079Z,86.00
2023-01-29T17:22:25.154Z,84.54
2023-01-29T17:25:29.332Z,83.41
2023-01-29T17:28:32.267Z,83.19
2023-01-29T17:31:35.285Z,83.46
2023-01-29T17:34:37.836Z,83.96
2023-01-29T17:37:42.095Z,84.57
2023-01-29T17:41:19.532Z,84.70
2023-01-29T17:44:22.780Z,84.82
2023-01-29T17:47:25.683Z,86.63
2023-01-29T17:50:32.563Z,86.35
2023-01-29T17:53:45.598Z,85.67
2023-01-29T17:56:51.633Z,85.43
2023-01-29T17:59:54.284Z,86.01
2023-01-29T18:02:58.514Z,87.52
2023-01-29T18:06:01.036Z,87.09
2023-01-29T18:09:05.060Z,87.44
2023-01-29T18:12:11.667Z,87.61
2023-01-29T18:15:14.595Z,87.09
2023-01-29T18:18:23.238Z,86.53
2023-01-29T18:21:25.627Z,87.04
2023-01-29T18:24:28.152Z,86.55
2023-01-29T18:27:30.667Z,87.30
2023-01-29T18:30:34.520Z,87.23
2023-01-29T18:33:38.223Z,86.69
2023-01-29T18:36:41.690Z,86.82
2023-01-29T18:39:44.276Z,85.89
2023-01-29T18:42:47.544Z,86.27
2023-01-29T18:45:50.352Z,87.01
2023-01-29T18:48:53.352Z,87.22
2023-01-29T18:51:56.295Z,88.09
2023-01-29T18:54:58.976Z,88.33
2023-01-29T18:58:26.146Z,88.89
2023-01-29T19:01:29.009Z,89.66
2023-01-29T19:04:31.471Z,90.15
2023-01-29T19:07:35.526Z,90.27
2023-01-29T19:10:44.196Z,90.78
2023-01-29T19:13:48.541Z,91.17
2023-01-29T19:16:52.360Z,91.28
2023-01-29T19:19:56.897Z,91.42
2023-01-29T19:23:04.074Z,91.88
2023-01-29T19:26:09.042Z,92.16
2023-01-29T19:29:12.043Z,92.03
2023-01-29T19:32:15.664Z,92.51
2023-01-29T19:35:19.744Z,92.76
2023-01-29T19:38:22.993Z,93.00
2023-01-29T19:41:25.871Z,93.51
2023-01-29T19:44:30.714Z,93.93
2023-01-29T19:47:42.290Z,94.17
2023-01-29T19:50:52.092Z,94.71
2023-01-29T19:53:55.886Z,94.59
2023-01-29T19:56:58.718Z,94.47
2023-01-29T20:00:01.709Z,95.81
2023-01-29T20:03:05.023Z,95.75
2023-01-29T20:06:14.288Z,95.75
2023-01-29T20:09:18.130Z,95.36
2023-01-29T20:12:21.040Z,97.55
2023-01-29T20:15:23.480Z,97.65
2023-01-29T20:18:28.338Z,96.86
2023-01-29T20:21:32.322Z,97.08
2023-01-29T20:24:40.574Z,96.96
2023-01-29T20:27:44.615Z,96.21
2023-01-29T20:30:48.491Z,95.96
2023-01-29T20:33:51.839Z,96.45
2023-01-29T20:36:54.784Z,96.25
2023-01-29T20:39:57.647Z,96.88
2023-01-29T20:43:00.396Z,95.88
2023-01-29T20:46:04.531Z,95.61
2023-01-29T20:49:09.608Z,95.85
2023-01-29T20:52:13.211Z,95.89
2023-01-29T20:55:19.562Z,95.37
2023-01-29T20:58:25.223Z,95.18
2023-01-29T21:01:28.046Z,94.11
2023-01-29T21:04:31.610Z,95.13
2023-01-29T21:07:35.391Z,96.86
2023-01-29T21:10:39.496Z,97.26
2023-01-29T21:13:44.112Z,98.47
2023-01-29T21:16:47.928Z,98.48
2023-01-29T21:19:50.760Z,98.82
2023-01-29T21:22:55.773Z,98.68
2023-01-29T21:26:05.974Z,98.78
2023-01-29T21:29:08.337Z,99.05
2023-01-29T21:32:11.958Z,99.29
2023-01-29T21:35:17.416Z,99.39
2023-01-29T21:38:20.560Z,100.00
2023-01-29T21:41:43.437Z,100.00
2023-01-29T21:44:47.616Z,100.00
2023-01-29T21:47:55.377Z,100.00
2023-01-29T21:50:57.761Z,99.94
2023-01-29T21:53:59.668Z,99.47
2023-01-29T21:57:04.860Z,99.28
2023-01-29T22:00:16.171Z,99.62
2023-01-29T22:03:20.191Z,100.00
2023-01-29T22:06:29.911Z,100.00
2023-01-29T22:09:35.483Z,99.83
2023-01-29T22:12:44.563Z,100.00
2023-01-29T22:15:47.628Z,99.56
2023-01-29T22:18:58.744Z,99.83
2023-01-29T22:22:10.106Z,100.00
2023-01-29T22:25:20.933Z,100.00
2023-01-29T22:28:24.809Z,100.00
2023-01-29T22:31:28.760Z,99.80
2023-01-29T22:34:36.057Z,99.53
2023-01-29T22:37:37.751Z,99.07
2023-01-29T22:40:40.623Z,99.02
2023-01-29T22:43:44.020Z,98.90
2023-01-29T22:46:45.928Z,99.33
2023-01-29T22:49:50.098Z,98.78
2023-01-29T22:52:53.604Z,98.66
2023-01-29T22:55:55.752Z,97.88
2023-01-29T22:58:59.329Z,97.79
2023-01-29T23:02:02.015Z,98.19
2023-01-29T23:05:04.419Z,98.41
2023-01-29T23:08:06.440Z,98.47
2023-01-29T23:11:14.717Z,99.18
2023-01-29T23:14:16.848Z,99.32
2023-01-29T23:17:18.553Z,98.81
2023-01-29T23:20:21.819Z,100.00
2023-01-29T23:23:23.574Z,100.00
2023-01-29T23:26:44.402Z,100.00
2023-01-29T23:29:48.601Z,100.00
2023-01-29T23:32:51.356Z,100.00
2023-01-29T23:35:54.083Z,100.00
2023-01-29T23:38:55.827Z,100.00
2023-01-29T23:41:58.723Z,100.00
2023-01-29T23:45:00.489Z,100.00
2023-01-29T23:48:02.158Z,100.00
2023-01-29T23:51:04.249Z,100.00
2023-01-29T23:54:06.935Z,100.00
2023-01-29T23:57:08.696Z,100.00
